Pagrindinis puslapis
METAR-TAF:

METAR-TAF

Oro uostai :

Marianna Municipal Airport

Marianna, Florida, Jungtinės Amerikos Valstijos

platuma: 30-50-12N, ilguma: 085-11-01W, Aukštis: 34 m

Dabartinis oras

Ataskaita buvo paskelbta 12 minutes, ne 18:53 UTC
Vėjas 6 kt iš Šiaurės Vakarų
Temperatūra 24°C
Drėgmė 34%
Slėgis 1014 hPa
Matomumas: 16.1 km
Giedras dangus

METAR: KMAI 171853Z AUTO 32006KT 10SM CLR 24/07 A2993 RMK AO2 SLP134 T02390067

Laikas: 14:05 (19:05 UTC)


TAF: trūkstamas

Orai ataskaitas ir orų prognozės (METAR, TAF).

turimą stotys yra geltonos ir raudonos taškus žemėlapyje.

Perkelti pele per norėdami pamatyti stoties vardą.

Tada spustelėkite, norėdami matyti oro stebėjimo ir prognozės.

Norėdami pakeisti žemėlapį: spustelėkite ant žalios mygtukų su juodo kryžiaus žemyn,; žalią mygtuką su brūkšneliu, jei norite nutolinti; arba žalių rodyklių gretimoms žemėlapius.


METAR-TAF: